Prior Lake, MN (55372)

12:01 PM CDT on August 31, 2015 (GMT -0500)
Credit River | | Change Station
CLOSE
Current Station
Personal Weather Station
Location: Credit River, MN
Elevation: 935 ft
Nearby Weather Stations

Elev 935 ft 44.70 °N, 93.39 °W | Updated 9 seconds ago

Overcast
Overcast
76.6 °F
Feels Like 78 °F
N
2.0
Wind Variable Wind from SSW
Gusts 6.0 mph

Today
High -- | Low -- °F
--% Chance of Precip.
Yesterday
High -- | Low -- °F
Precip. -- in
6:34 AM 7:52 PM
Waning Gibbous, 94% visible
Pressure 29.91 in
Visibility 8.0 miles
Clouds Few 1700 ft
Heat Index 78 °F
Dew Point 69 °F
Humidity 77%
Rainfall 0.00 in
Snow Depth Not available.
UV 0.0 out of 12
Pollen 9.40 out of 12
Air Quality Not available.
Flu Activity Not available.
METAR KFCM 311653Z 19014KT 8SM FEW017 26/21 A2992 RMK AO2 SLP128 T02610206
Pressure 29.91 in
Visibility 8.0 miles
Clouds Few 1700 ft
Heat Index 78 °F
Dew Point 69 °F
Humidity 77%
Rainfall 0.00 in
Snow Depth Not available.
UV 0.0 out of 12
Pollen 9.40 out of 12
Air Quality Not available.
Flu Activity Not available.
METAR KFCM 311653Z 19014KT 8SM FEW017 26/21 A2992 RMK AO2 SLP128 T02610206

10-Day Weather Forecast

×

Almanac

Astronomy

Aug. 31, 2015 Rise Set
Actual Time
Civil Twilight
Nautical Twilight
Astronomical Twilight
Moon
Length of Visible Light
Length of Day
Tomorrow will be .
, % of the Moon is Illuminated

Today's Extremes

State Highs State Lows

Community

WunderPhotos

Upload Photos

1,851,320 photos uploaded!

WunderBlogs® & News

Nearby

Air Quality

  Air Quality AQ Index Pollutant
Not available.

Snow Depth

Station Depth Elevation

Earthquake Activity

City Distance Mag. Time & Date
Minimum magnitude displayed is 2.5.

Coastal Water Temperatures

Place Temperature

Stations

Nearby Weather Stations

Station Location Temp. Windchill Dew Point Humidity Wind Precip. Elev Updated Type